Terminal Aerodrome Forecast
Issued by NWS St Louis, MO

Home | Current Version | Previous Version | Text Only | Print | Product List | Glossary On
Versions: 1 2 3 4 5 6 7 8 9 10 11 12 13 14 15 16 17 18 19 20 21
000
FTUS43 KLSX 181514 AAD
TAFCOU
TAF AMD
KCOU 181514Z 1815/1912 34018G28KT 5SM -SHRA BR SCT008 OVC012
      TEMPO 1815/1818 3SM -SHRA BR BKN008
     FM181800 33021G37KT 4SM -SHRA OVC020
     FM182100 32019G34KT P6SM SCT030 BKN100
     FM190300 31012KT P6SM SKC=

USA.gov is the U.S. government's official web portal to all federal, state and local government web resources and services.